Time;durP1;ratioP1;P1;durP2;ratioP2;P2;SDS_P1;SDS_P2;PMS_P1;PMS_P2;Temp;Humidity;BMP_temperature;BMP_pressure;BME280_temperature;BME280_humidity;BME280_pressure;Samples;Min_cycle;Max_cycle;Signal;HPM_P1;HPM_P2
2023/08/13 00:00:22;;;;;;;9.63;2.95;;;;;;;20.11;81.59;101583.59;5014441;28;20108;-64
2023/08/13 00:02:50;;;;;;;11.75;3.13;;;;;;;20.08;81.07;101578.66;5015356;28;20046;-64
2023/08/13 00:05:18;;;;;;;9.77;2.97;;;;;;;20.08;81.43;101586.16;5002469;28;20046;-64
2023/08/13 00:07:45;;;;;;;9.05;3.45;;;;;;;20.07;82.83;101584.53;4993865;28;20138;-64
2023/08/13 00:10:13;;;;;;;8.90;3.00;;;;;;;20.07;84.01;101584.53;5014887;28;20103;-64
2023/08/13 00:12:41;;;;;;;10.52;3.17;;;;;;;20.08;84.30;101580.63;5014597;28;20049;-64
2023/08/13 00:15:10;;;;;;;8.35;3.17;;;;;;;20.07;84.15;101579.00;5014527;28;20046;-64
2023/08/13 00:17:38;;;;;;;10.60;3.30;;;;;;;20.06;84.33;101578.19;4995271;28;20103;-63
2023/08/13 00:20:07;;;;;;;11.50;3.88;;;;;;;20.05;84.99;101581.25;5014551;28;20379;-63
2023/08/13 00:22:34;;;;;;;10.40;3.35;;;;;;;20.00;84.79;101574.72;5014654;28;20095;-63
2023/08/13 00:25:02;;;;;;;9.27;3.30;;;;;;;19.99;84.07;101573.09;4996860;28;20046;-63
2023/08/13 00:27:30;;;;;;;12.75;3.25;;;;;;;19.96;84.60;101576.50;5013542;28;20038;-65
2023/08/13 00:29:59;;;;;;;9.68;3.08;;;;;;;19.99;86.16;101580.59;4996882;28;20096;-65
2023/08/13 00:32:27;;;;;;;8.88;3.08;;;;;;;20.00;88.53;101580.25;4996730;28;20034;-65
2023/08/13 00:34:55;;;;;;;10.80;3.10;;;;;;;19.98;87.23;101576.97;4996623;28;20064;-64
2023/08/13 00:37:23;;;;;;;8.52;2.83;;;;;;;19.90;85.77;101572.19;4980131;28;20050;-65
2023/08/13 00:39:51;;;;;;;9.75;3.22;;;;;;;19.93;88.17;101579.88;5012855;28;20061;-64
2023/08/13 00:42:18;;;;;;;11.77;3.08;;;;;;;19.87;86.17;101578.38;5012792;28;20045;-63
2023/08/13 00:44:46;;;;;;;8.52;3.13;;;;;;;19.82;84.89;101575.72;4980499;28;20049;-64
2023/08/13 00:47:14;;;;;;;8.27;3.30;;;;;;;19.83;87.04;101584.84;4996780;28;20065;-64
2023/08/13 00:49:42;;;;;;;12.45;3.38;;;;;;;19.82;87.50;101583.19;5012045;28;20050;-64
2023/08/13 00:52:10;;;;;;;9.93;3.47;;;;;;;19.82;88.20;101584.03;5014296;28;20050;-65
2023/08/13 00:54:38;;;;;;;11.20;3.80;;;;;;;19.81;88.07;101582.38;5014661;28;20056;-64
2023/08/13 00:57:06;;;;;;;8.68;2.97;;;;;;;19.75;86.00;101578.09;4980053;28;20061;-63
2023/08/13 00:59:34;;;;;;;9.90;3.20;;;;;;;19.77;88.22;101573.88;4996561;28;20480;-64
2023/08/13 01:02:02;;;;;;;15.43;3.55;;;;;;;19.71;84.74;101575.13;4996525;28;20042;-65
2023/08/13 01:04:30;;;;;;;11.32;3.60;;;;;;;19.76;90.25;101569.47;5013985;28;20164;-65
2023/08/13 01:07:11;;;;;;;8.55;3.13;;;;;;;19.72;87.60;101579.53;5014283;28;20053;-65
2023/08/13 01:10:04;;;;;;;9.68;3.10;;;;;;;19.68;88.12;101573.00;4995460;28;20096;-67
2023/08/13 01:12:58;;;;;;;11.07;3.03;;;;;;;19.68;87.62;101574.94;5013346;28;20054;-64
2023/08/13 01:15:33;;;;;;;11.55;3.30;;;;;;;19.64;87.23;101565.59;4963967;28;20053;-65
2023/08/13 01:18:01;;;;;;;10.83;2.90;;;;;;;19.63;86.11;101569.50;5016267;28;20481;-64
2023/08/13 01:20:31;;;;;;;8.68;3.03;;;;;;;19.63;86.31;101575.03;5016845;28;20048;-65
2023/08/13 01:22:59;;;;;;;9.02;2.83;;;;;;;19.62;86.46;101563.13;5000687;28;20481;-65
2023/08/13 01:25:27;;;;;;;8.35;2.70;;;;;;;19.59;85.93;101572.88;5001029;28;20050;-65
2023/08/13 01:28:02;;;;;;;10.25;3.08;;;;;;;19.58;86.90;101568.47;5000138;28;20054;-64
2023/08/13 01:30:40;;;;;;;9.77;3.17;;;;;;;19.58;87.20;101567.66;4971502;28;20053;-67
2023/08/13 01:33:09;;;;;;;8.00;3.25;;;;;;;19.51;86.37;101570.84;5001150;28;20489;-65
2023/08/13 01:35:37;;;;;;;11.52;3.67;;;;;;;19.46;87.44;101572.88;4968289;28;20071;-64
2023/08/13 01:38:06;;;;;;;10.40;2.97;;;;;;;19.42;87.03;101569.94;5016334;28;20056;-64
2023/08/13 01:40:34;;;;;;;10.38;2.90;;;;;;;19.47;89.88;101574.53;4999358;28;20489;-65
2023/08/13 01:43:02;;;;;;;16.73;3.20;;;;;;;19.49;90.46;101575.88;5016491;28;20049;-65
2023/08/13 01:45:30;;;;;;;11.00;3.05;;;;;;;19.43;88.02;101574.31;4984022;28;20061;-65
2023/08/13 01:47:58;;;;;;;9.07;3.05;;;;;;;19.43;89.27;101579.03;4999870;28;20060;-64
2023/08/13 01:50:26;;;;;;;11.00;3.08;;;;;;;19.42;90.51;101574.66;4999825;28;20050;-64
2023/08/13 01:52:54;;;;;;;11.05;3.40;;;;;;;19.39;89.75;101578.03;4998109;28;20046;-65
2023/08/13 01:55:23;;;;;;;8.20;3.03;;;;;;;19.36;88.66;101577.53;4999366;28;20053;-65
2023/08/13 01:57:51;;;;;;;14.43;3.53;;;;;;;19.38;89.82;101585.50;5009724;28;20533;-66
2023/08/13 02:00:19;;;;;;;8.82;2.80;;;;;;;19.38;90.04;101585.50;4988496;28;20106;-61
2023/08/13 02:02:47;;;;;;;11.25;3.20;;;;;;;19.35;90.67;101580.59;4992009;28;20509;-64
2023/08/13 02:05:15;;;;;;;7.35;2.80;;;;;;;19.33;90.51;101578.13;5012587;28;20434;-64
2023/08/13 02:07:43;;;;;;;11.60;3.50;;;;;;;19.27;88.56;101584.09;4999875;28;20060;-63
2023/08/13 02:10:11;;;;;;;10.88;3.25;;;;;;;19.24;88.85;101576.41;5012374;28;20118;-57
2023/08/13 02:12:40;;;;;;;11.38;3.13;;;;;;;19.30;90.94;101575.19;5034028;28;20058;-61
2023/08/13 02:15:08;;;;;;;10.45;3.55;;;;;;;19.30;89.97;101575.19;5010125;28;20046;-62
2023/08/13 02:17:43;;;;;;;11.60;3.35;;;;;;;19.34;92.05;101578.97;5003532;28;20057;-65
2023/08/13 02:20:11;;;;;;;13.48;3.45;;;;;;;19.31;91.22;101579.56;4999328;28;20057;-66
2023/08/13 02:22:39;;;;;;;9.57;2.78;;;;;;;19.26;91.18;101574.16;4983454;28;20054;-65
2023/08/13 02:25:07;;;;;;;7.82;2.92;;;;;;;19.22;90.22;101571.19;5005794;28;20076;-65
2023/08/13 02:27:36;;;;;;;8.00;2.92;;;;;;;19.22;90.52;101570.34;4979068;28;20051;-64
2023/08/13 02:30:06;;;;;;;9.00;3.03;;;;;;;19.20;90.42;101570.69;4978995;28;20097;-65
2023/08/13 02:32:34;;;;;;;11.30;3.40;;;;;;;19.19;90.55;101570.97;5015786;28;20050;-65
2023/08/13 02:35:01;;;;;;;9.23;3.15;;;;;;;19.15;90.40;101565.28;5015591;28;20397;-65
2023/08/13 02:37:29;;;;;;;10.05;2.70;;;;;;;19.15;90.50;101570.81;5016580;28;20046;-65
2023/08/13 02:39:59;;;;;;;10.18;3.35;;;;;;;19.13;90.33;101564.75;5015889;28;20053;-65
2023/08/13 02:42:26;;;;;;;11.10;3.20;;;;;;;19.10;90.69;101557.91;4998660;28;20049;-65
2023/08/13 02:44:54;;;;;;;14.05;3.30;;;;;;;19.09;90.87;101556.25;4998669;28;20096;-65
2023/08/13 02:47:22;;;;;;;8.38;2.95;;;;;;;19.10;91.48;101557.91;5015424;28;20193;-66
2023/08/13 02:49:50;;;;;;;12.82;3.33;;;;;;;19.09;91.11;101556.25;4998627;28;20490;-66
2023/08/13 02:52:18;;;;;;;8.55;3.00;;;;;;;19.09;91.38;101560.97;4998468;28;20041;-65
2023/08/13 02:54:46;;;;;;;11.30;3.20;;;;;;;19.08;91.61;101560.16;5016904;28;20045;-65
2023/08/13 02:57:15;;;;;;;8.40;2.90;;;;;;;19.06;91.14;101562.41;4997199;28;20552;-65
2023/08/13 02:59:43;;;;;;;9.88;3.58;;;;;;;19.07;91.97;101558.53;5016038;28;20056;-65
2023/08/13 03:02:11;;;;;;;11.82;3.30;;;;;;;19.05;91.97;101552.50;4982389;28;20054;-64
2023/08/13 03:04:39;;;;;;;13.38;3.42;;;;;;;19.02;91.89;101561.38;4989876;28;20538;-64
2023/08/13 03:07:07;;;;;;;6.78;2.45;;;;;;;19.03;91.98;101551.97;5006424;28;20046;-64
2023/08/13 03:09:35;;;;;;;10.23;2.88;;;;;;;19.06;93.02;101550.53;5015800;28;20400;-65
2023/08/13 03:12:03;;;;;;;8.23;2.72;;;;;;;19.02;92.79;101561.38;4998049;28;20049;-64
2023/08/13 03:14:31;;;;;;;9.23;2.67;;;;;;;19.00;92.50;101560.03;4998434;28;20448;-64
2023/08/13 03:16:58;;;;;;;12.50;3.33;;;;;;;18.98;92.84;101565.06;4996827;28;20056;-64
2023/08/13 03:19:26;;;;;;;10.20;2.95;;;;;;;18.98;92.71;101562.28;4982490;28;20061;-65
2023/08/13 03:21:54;;;;;;;9.80;2.80;;;;;;;18.93;92.96;101558.53;4994248;28;20068;-65
2023/08/13 03:24:22;;;;;;;11.90;3.38;;;;;;;18.91;92.67;101554.44;5016214;28;20050;-64
2023/08/13 03:26:50;;;;;;;11.30;3.17;;;;;;;18.89;93.02;101560.25;5015767;28;20054;-65
2023/08/13 03:29:19;;;;;;;13.95;3.35;;;;;;;18.88;93.07;101566.06;4997322;28;20050;-64
2023/08/13 03:31:49;;;;;;;11.27;3.45;;;;;;;18.83;93.60;101558.72;4998345;28;20045;-64
2023/08/13 03:34:22;;;;;;;9.25;3.05;;;;;;;18.78;93.38;101556.03;4998163;28;20056;-65
2023/08/13 03:36:52;;;;;;;11.88;3.28;;;;;;;18.78;94.49;101563.50;4998053;28;20054;-64
2023/08/13 03:39:20;;;;;;;9.93;2.90;;;;;;;18.79;95.28;101552.19;4997156;28;20046;-65
2023/08/13 03:41:48;;;;;;;11.52;3.30;;;;;;;18.78;95.27;101556.03;4981401;28;20520;-64
2023/08/13 03:44:15;;;;;;;9.85;3.15;;;;;;;18.76;94.29;101552.78;4997911;28;20489;-65
2023/08/13 03:46:43;;;;;;;9.48;2.78;;;;;;;18.76;94.31;101552.78;4993974;28;20057;-64
2023/08/13 03:49:11;;;;;;;8.75;3.08;;;;;;;18.71;93.82;101561.97;4998255;28;20046;-64
2023/08/13 03:51:39;;;;;;;11.05;3.30;;;;;;;18.68;94.14;101558.97;5011101;28;20053;-64
2023/08/13 03:54:07;;;;;;;9.35;2.95;;;;;;;18.66;94.50;101559.28;4997413;28;20076;-65
2023/08/13 03:56:37;;;;;;;9.63;2.70;;;;;;;18.64;94.72;101556.03;4997270;28;20555;-65
2023/08/13 03:59:06;;;;;;;10.80;3.05;;;;;;;18.61;94.58;101562.13;5014219;28;20375;-65
2023/08/13 04:01:35;;;;;;;13.30;3.10;;;;;;;18.61;94.84;101555.78;4996575;28;20563;-64
2023/08/13 04:04:03;;;;;;;11.25;3.15;;;;;;;18.61;94.75;101559.38;4995984;28;20046;-65
2023/08/13 04:06:31;;;;;;;13.30;3.85;;;;;;;18.58;94.69;101557.22;4960013;28;20124;-66
2023/08/13 04:08:58;;;;;;;9.73;2.80;;;;;;;18.58;94.80;101561.94;4992919;28;20054;-64
2023/08/13 04:11:27;;;;;;;9.13;2.88;;;;;;;18.57;94.83;101555.59;5010529;28;20497;-67
2023/08/13 04:13:55;;;;;;;14.60;3.28;;;;;;;18.56;94.91;101564.97;4995737;28;20053;-65
2023/08/13 04:16:23;;;;;;;8.95;3.38;;;;;;;18.53;95.19;101560.06;4979257;28;20061;-65
2023/08/13 04:18:51;;;;;;;9.38;2.70;;;;;;;18.52;95.30;101561.22;4996023;28;20057;-65
2023/08/13 04:21:23;;;;;;;8.52;3.17;;;;;;;18.52;95.54;101562.03;4995094;28;20042;-65
2023/08/13 04:23:57;;;;;;;9.43;2.78;;;;;;;18.53;95.26;101560.06;5003454;28;20046;-67
2023/08/13 04:26:25;;;;;;;7.72;2.72;;;;;;;18.48;95.37;101568.47;4975944;28;20050;-64
2023/08/13 04:28:56;;;;;;;8.18;2.70;;;;;;;18.47;95.97;101566.81;4976118;28;20046;-63
2023/08/13 04:31:24;;;;;;;9.77;3.42;;;;;;;18.48;95.94;101563.75;4994260;28;20050;-65
2023/08/13 04:33:52;;;;;;;9.32;2.70;;;;;;;18.44;95.82;101568.22;4995614;28;20053;-65
2023/08/13 04:36:21;;;;;;;11.18;3.55;;;;;;;18.42;96.02;101566.91;4978283;28;20049;-65
2023/08/13 04:38:48;;;;;;;12.93;3.10;;;;;;;18.40;96.33;101556.19;5012551;28;20084;-66
2023/08/13 04:41:16;;;;;;;9.00;2.90;;;;;;;18.41;96.32;101562.50;4993497;28;20046;-67
2023/08/13 04:43:47;;;;;;;9.18;2.85;;;;;;;18.40;96.22;101560.84;4977056;28;20559;-65
2023/08/13 04:46:15;;;;;;;11.68;3.42;;;;;;;18.42;96.51;101564.13;4992736;28;20069;-66
2023/08/13 04:48:53;;;;;;;8.98;2.63;;;;;;;18.43;96.39;101561.09;4975322;28;20054;-65
2023/08/13 04:51:25;;;;;;;9.95;3.33;;;;;;;18.45;96.50;101560.78;4992110;28;20042;-67
2023/08/13 04:53:53;;;;;;;12.35;3.40;;;;;;;18.41;96.09;101568.03;5012846;28;20804;-66
2023/08/13 04:56:24;;;;;;;9.95;3.13;;;;;;;18.34;96.30;101562.91;4999169;28;20116;-65
2023/08/13 04:58:53;;;;;;;9.70;3.53;;;;;;;18.31;96.89;101572.59;5000444;28;20046;-66
2023/08/13 05:01:21;;;;;;;11.45;2.80;;;;;;;18.31;96.96;101569.84;5000605;28;20057;-64
2023/08/13 05:03:55;;;;;;;12.85;3.15;;;;;;;18.33;96.94;101576.97;4999803;28;20052;-65
2023/08/13 05:06:23;;;;;;;9.70;3.28;;;;;;;18.33;97.03;101566.78;5016937;28;20057;-65
2023/08/13 05:08:53;;;;;;;10.85;3.20;;;;;;;18.31;96.99;101564.31;4995242;28;20050;-64
2023/08/13 05:11:21;;;;;;;10.75;3.22;;;;;;;18.34;97.14;101565.66;4980667;28;20042;-64
2023/08/13 05:13:49;;;;;;;10.00;3.15;;;;;;;18.35;96.83;101566.47;4988258;28;20050;-64
2023/08/13 05:16:18;;;;;;;13.95;4.18;;;;;;;18.31;97.09;101564.31;5000075;28;20053;-63
2023/08/13 05:18:47;;;;;;;10.52;2.83;;;;;;;18.31;97.04;101564.31;5000459;28;20050;-65
2023/08/13 05:21:15;;;;;;;10.10;2.90;;;;;;;18.33;97.16;101568.69;5000485;28;20038;-64
2023/08/13 05:23:44;;;;;;;7.88;2.70;;;;;;;18.34;96.94;101567.59;4982718;28;20058;-64
2023/08/13 05:26:13;;;;;;;10.40;3.33;;;;;;;18.33;97.24;101569.53;4980926;28;20085;-62
2023/08/13 05:28:41;;;;;;;11.35;3.05;;;;;;;18.33;97.47;101565.94;4980729;28;20100;-65
2023/08/13 05:31:10;;;;;;;11.57;3.30;;;;;;;18.34;97.37;101564.84;4980120;28;20142;-65
2023/08/13 05:33:38;;;;;;;8.40;3.30;;;;;;;18.32;97.29;101559.63;5000941;28;20046;-64
2023/08/13 05:36:06;;;;;;;13.65;3.33;;;;;;;18.30;97.75;101570.97;4992224;28;20474;-65
2023/08/13 05:38:34;;;;;;;10.07;3.63;;;;;;;18.29;97.31;101577.59;4984826;28;20050;-65
2023/08/13 05:41:05;;;;;;;10.40;2.83;;;;;;;18.28;98.23;101569.63;4999104;28;20567;-65
2023/08/13 05:43:32;;;;;;;8.80;2.90;;;;;;;18.30;98.40;101573.72;4984673;28;20064;-65
2023/08/13 05:46:01;;;;;;;8.60;2.92;;;;;;;18.33;98.87;101576.97;4999781;28;20048;-64
2023/08/13 05:48:28;;;;;;;11.00;3.22;;;;;;;18.37;99.06;101584.34;4984285;28;20054;-65
2023/08/13 05:50:56;;;;;;;10.45;3.13;;;;;;;18.37;98.83;101583.53;4999359;28;20069;-65
2023/08/13 05:53:24;;;;;;;7.80;3.03;;;;;;;18.37;99.01;101589.06;4983228;28;20050;-65
2023/08/13 05:55:53;;;;;;;9.27;3.13;;;;;;;18.40;99.41;101588.44;5016272;28;20042;-64
2023/08/13 05:58:21;;;;;;;8.85;3.33;;;;;;;18.37;99.19;101583.53;5017145;28;20379;-64
2023/08/13 06:00:49;;;;;;;11.38;3.67;;;;;;;18.39;99.20;101589.59;5017471;28;20054;-62
2023/08/13 06:03:17;;;;;;;8.88;3.08;;;;;;;18.45;100.00;101586.44;5000425;28;20505;-62
2023/08/13 06:05:45;;;;;;;8.93;3.35;;;;;;;18.46;100.00;101582.53;5006727;28;20055;-63
2023/08/13 06:08:13;;;;;;;10.93;3.92;;;;;;;18.45;100.00;101588.38;5015700;28;20084;-63
2023/08/13 06:10:41;;;;;;;8.45;2.63;;;;;;;18.51;100.00;101587.16;5016744;28;20041;-64
2023/08/13 06:13:09;;;;;;;11.38;3.13;;;;;;;18.54;100.00;101589.31;4999080;28;20057;-63
2023/08/13 06:15:37;;;;;;;11.02;3.70;;;;;;;18.52;100.00;101591.56;5016840;28;20052;-63
2023/08/13 06:18:05;;;;;;;8.55;3.17;;;;;;;18.51;100.00;101589.91;5016291;28;20045;-65
2023/08/13 06:20:33;;;;;;;10.32;3.80;;;;;;;18.53;100.00;101587.69;5010344;28;20045;-60
2023/08/13 06:23:01;;;;;;;11.88;3.70;;;;;;;18.58;100.00;101587.59;5018949;28;20124;-63
2023/08/13 06:25:29;;;;;;;11.57;3.50;;;;;;;18.56;100.00;101589.81;5006227;28;20057;-62
2023/08/13 06:27:56;;;;;;;6.70;2.65;;;;;;;18.60;100.00;101590.88;5017799;28;20049;-64
2023/08/13 06:30:24;;;;;;;9.15;2.90;;;;;;;18.72;100.00;101585.66;5017431;28;20046;-64
2023/08/13 06:32:52;;;;;;;11.25;2.85;;;;;;;18.91;100.00;101595.84;5028728;28;20089;-62
2023/08/13 06:35:20;;;;;;;10.60;3.55;;;;;;;18.83;100.00;101593.78;5015493;28;20110;-58
2023/08/13 06:37:48;;;;;;;7.57;2.83;;;;;;;18.80;100.00;101597.16;5032185;28;20723;-60
2023/08/13 06:40:29;;;;;;;12.75;3.20;;;;;;;18.89;100.00;101596.16;5004413;28;20132;-65
2023/08/13 06:42:57;;;;;;;6.95;3.00;;;;;;;18.99;100.00;101595.13;5002417;28;20336;-63
2023/08/13 06:45:27;;;;;;;11.13;3.10;;;;;;;18.95;100.00;101594.09;5002735;28;20054;-65
2023/08/13 06:47:57;;;;;;;12.10;3.50;;;;;;;18.98;100.00;101595.44;5015351;28;20050;-65
2023/08/13 06:50:26;;;;;;;6.57;2.70;;;;;;;18.99;100.00;101586.84;5015802;28;20065;-65
2023/08/13 06:52:54;;;;;;;9.38;2.90;;;;;;;19.00;100.00;101591.25;4998905;28;20405;-62
2023/08/13 06:55:22;;;;;;;13.55;3.28;;;;;;;19.00;100.00;101595.94;5016103;28;20100;-65
2023/08/13 06:57:51;;;;;;;8.75;3.20;;;;;;;18.99;100.00;101595.13;4997732;28;20393;-65
2023/08/13 07:00:20;;;;;;;10.23;3.40;;;;;;;19.03;100.00;101595.34;5013084;28;20046;-65
2023/08/13 07:02:55;;;;;;;15.95;3.13;;;;;;;19.03;100.00;101601.69;4999330;28;20046;-64
2023/08/13 07:05:23;;;;;;;11.35;2.97;;;;;;;19.20;100.00;101594.75;5015625;28;20050;-62
2023/08/13 07:07:51;;;;;;;10.65;3.33;;;;;;;19.23;100.00;101594.94;4998033;28;20050;-64
2023/08/13 07:10:19;;;;;;;9.02;3.28;;;;;;;19.20;100.00;101597.50;4980146;28;20052;-63
2023/08/13 07:12:47;;;;;;;12.07;3.38;;;;;;;19.18;100.00;101594.22;4998161;28;20493;-63
2023/08/13 07:15:15;;;;;;;12.93;3.42;;;;;;;19.10;100.00;101596.59;5014664;28;20061;-64
2023/08/13 07:17:42;;;;;;;8.48;2.78;;;;;;;19.08;100.00;101593.31;4981772;28;20050;-63
2023/08/13 07:20:13;;;;;;;9.10;2.90;;;;;;;19.07;100.00;101586.16;4980747;28;20052;-64
2023/08/13 07:22:43;;;;;;;9.93;3.70;;;;;;;19.08;100.00;101587.78;5014517;28;20517;-65
2023/08/13 07:25:12;;;;;;;15.35;3.55;;;;;;;19.10;100.00;101591.06;5014788;28;20046;-65
2023/08/13 07:27:41;;;;;;;11.23;3.22;;;;;;;19.20;100.00;101584.50;4980620;28;20402;-64
2023/08/13 07:30:10;;;;;;;12.52;3.63;;;;;;;19.22;100.00;101578.66;5005165;28;20078;-64
2023/08/13 07:32:42;;;;;;;10.68;3.60;;;;;;;19.28;100.00;101581.00;4996693;28;20107;-64
2023/08/13 07:35:12;;;;;;;9.73;3.40;;;;;;;19.27;100.00;101578.56;4998610;28;20478;-65
2023/08/13 07:37:40;;;;;;;9.48;3.03;;;;;;;19.26;100.00;101588.78;5015898;28;20050;-64
2023/08/13 07:40:12;;;;;;;14.32;3.60;;;;;;;19.21;100.00;101588.06;4996573;28;20486;-63
2023/08/13 07:42:40;;;;;;;12.52;3.80;;;;;;;19.23;100.00;101578.34;5013897;28;20505;-64
2023/08/13 07:45:10;;;;;;;14.57;4.07;;;;;;;19.23;100.00;101586.63;5014646;28;20046;-64
2023/08/13 07:47:39;;;;;;;15.77;3.50;;;;;;;19.25;100.00;101597.41;4997549;28;20397;-66
2023/08/13 07:50:08;;;;;;;14.85;4.20;;;;;;;19.30;100.00;101600.88;4996824;28;20065;-65
2023/08/13 07:52:36;;;;;;;8.45;2.78;;;;;;;19.32;100.00;101595.84;5013455;28;20354;-65
2023/08/13 07:55:05;;;;;;;12.57;3.83;;;;;;;19.37;100.00;101586.63;5011884;28;20045;-66
2023/08/13 07:57:33;;;;;;;19.60;4.50;;;;;;;19.47;100.00;101597.47;4665193;28;10000855;-64
2023/08/13 08:00:02;;;;;;;13.88;4.13;;;;;;;19.48;100.00;101588.06;5007419;28;20048;-64
2023/08/13 08:02:39;;;;;;;24.80;5.15;;;;;;;19.52;100.00;101596.53;5002840;28;20046;-63
2023/08/13 08:05:08;;;;;;;15.52;4.50;;;;;;;19.58;100.00;101592.56;4990047;28;20050;-65
2023/08/13 08:07:37;;;;;;;13.93;4.25;;;;;;;19.64;100.00;101587.72;5010472;28;20049;-64
2023/08/13 08:10:07;;;;;;;15.90;4.57;;;;;;;19.71;100.00;101588.13;4992996;28;20053;-64
2023/08/13 08:12:35;;;;;;;16.02;4.53;;;;;;;19.71;100.00;101582.59;5009572;28;20061;-62
2023/08/13 08:15:04;;;;;;;11.05;3.35;;;;;;;19.65;100.00;101581.88;4976701;28;20508;-65
2023/08/13 08:17:33;;;;;;;9.57;3.50;;;;;;;19.62;100.00;101584.44;4962941;28;20058;-64
2023/08/13 08:20:03;;;;;;;14.27;4.10;;;;;;;19.61;100.00;101582.81;4989704;28;20413;-64
2023/08/13 08:22:31;;;;;;;12.45;3.95;;;;;;;19.61;100.00;101583.63;5010009;28;20103;-64
2023/08/13 08:24:59;;;;;;;13.73;4.20;;;;;;;19.63;100.00;101591.63;5009811;28;20045;-65
2023/08/13 08:27:27;;;;;;;16.75;5.00;;;;;;;19.63;100.00;101586.91;5008071;28;20074;-65
2023/08/13 08:29:55;;;;;;;13.65;3.97;;;;;;;19.64;100.00;101585.75;4995208;28;20050;-65
2023/08/13 08:32:23;;;;;;;11.07;3.80;;;;;;;19.63;100.00;101575.03;4991186;28;20115;-64
2023/08/13 08:34:51;;;;;;;13.48;4.15;;;;;;;19.67;100.00;101587.09;4980924;28;20410;-62
2023/08/13 08:37:19;;;;;;;12.68;4.10;;;;;;;19.71;100.00;101588.13;5012716;28;20323;-63
2023/08/13 08:39:46;;;;;;;14.75;4.05;;;;;;;19.74;100.00;101590.28;5011874;28;20046;-63
2023/08/13 08:42:14;;;;;;;16.02;3.90;;;;;;;19.80;100.00;101577.97;4979344;28;20044;-63
2023/08/13 08:44:43;;;;;;;15.32;4.72;;;;;;;19.95;100.00;101579.56;5012174;28;20050;-64
2023/08/13 08:47:11;;;;;;;8.75;3.13;;;;;;;19.99;100.00;101577.81;5013215;28;20048;-63
2023/08/13 08:49:39;;;;;;;12.18;3.33;;;;;;;20.00;99.50;101580.25;4992900;28;20054;-63
2023/08/13 08:52:07;;;;;;;13.00;3.67;;;;;;;20.02;99.74;101582.72;4995837;28;20103;-63
2023/08/13 08:54:39;;;;;;;16.08;3.75;;;;;;;20.08;99.88;101580.63;5014144;28;20053;-63
2023/08/13 08:57:07;;;;;;;11.73;3.50;;;;;;;20.07;100.00;101581.78;4993174;28;20053;-64
2023/08/13 08:59:36;;;;;;;10.77;3.28;;;;;;;20.07;99.62;101576.25;5011901;28;20049;-64
2023/08/13 09:02:04;;;;;;;10.98;3.45;;;;;;;20.10;100.00;101579.19;4994917;28;20054;-62
2023/08/13 09:04:32;;;;;;;10.70;3.45;;;;;;;20.11;100.00;101569.78;4967830;28;20093;-66
2023/08/13 09:07:02;;;;;;;11.68;3.33;;;;;;;20.09;100.00;101566.50;5013605;28;20087;-64
2023/08/13 09:09:31;;;;;;;12.02;3.33;;;;;;;20.11;100.00;101566.19;4994679;28;20046;-63
2023/08/13 09:12:00;;;;;;;12.38;3.95;;;;;;;20.08;98.17;101569.56;4962892;28;20096;-63
2023/08/13 09:14:29;;;;;;;15.07;3.63;;;;;;;20.07;98.48;101560.44;4976967;28;20038;-63
2023/08/13 09:16:58;;;;;;;15.50;3.60;;;;;;;20.11;98.67;101563.41;4994956;28;20053;-63
2023/08/13 09:19:27;;;;;;;15.73;3.72;;;;;;;20.09;97.82;101557.38;4996709;28;20042;-62
2023/08/13 09:22:06;;;;;;;17.40;3.30;;;;;;;20.13;98.71;101561.97;5013861;28;20100;-64
2023/08/13 09:24:35;;;;;;;14.15;4.07;;;;;;;20.17;97.77;101556.63;5012336;28;20049;-64
2023/08/13 09:27:05;;;;;;;8.88;3.20;;;;;;;20.18;97.54;101552.72;5011876;28;20042;-64
2023/08/13 09:29:33;;;;;;;13.45;3.38;;;;;;;20.20;97.12;101544.91;5013218;28;20115;-64
2023/08/13 09:32:02;;;;;;;13.43;3.85;;;;;;;20.23;97.05;101547.06;5005695;28;20054;-63
2023/08/13 09:34:33;;;;;;;12.10;3.22;;;;;;;20.26;96.57;101543.66;5008477;28;20046;-64
2023/08/13 09:37:01;;;;;;;9.52;3.03;;;;;;;20.30;96.22;101546.59;5004017;28;20042;-63
2023/08/13 09:39:33;;;;;;;7.13;2.88;;;;;;;20.31;94.82;101539.94;5004246;28;20054;-63
2023/08/13 09:42:05;;;;;;;11.48;3.33;;;;;;;20.38;97.32;101532.81;4982858;28;20048;-63
2023/08/13 09:44:33;;;;;;;12.98;3.35;;;;;;;20.43;96.79;101529.91;4964891;28;20042;-63
2023/08/13 09:47:03;;;;;;;9.85;3.05;;;;;;;20.42;93.98;101517.22;4997894;28;20406;-63
2023/08/13 09:49:33;;;;;;;12.40;3.00;;;;;;;20.46;93.63;101513.81;4996448;28;20051;-63
2023/08/13 09:52:04;;;;;;;12.98;3.50;;;;;;;20.50;94.71;101517.56;5014917;28;20049;-63
2023/08/13 09:54:37;;;;;;;12.43;3.38;;;;;;;20.54;94.63;101510.25;4978967;28;20060;-63
2023/08/13 09:57:09;;;;;;;9.32;3.08;;;;;;;20.59;94.53;101507.41;5008798;28;20045;-63
2023/08/13 09:59:37;;;;;;;10.88;3.42;;;;;;;20.62;94.23;101506.75;4998740;28;20100;-64
2023/08/13 10:02:07;;;;;;;11.40;3.58;;;;;;;20.64;92.76;101510.00;4995987;28;20053;-64
2023/08/13 10:04:42;;;;;;;12.93;3.13;;;;;;;20.64;91.75;101507.25;5008249;28;20042;-64
2023/08/13 10:07:10;;;;;;;8.73;2.92;;;;;;;20.68;93.56;101499.91;5000955;28;20049;-64
2023/08/13 10:09:38;;;;;;;10.65;3.67;;;;;;;20.71;91.90;101498.44;4986431;28;20054;-63
2023/08/13 10:12:07;;;;;;;12.75;3.70;;;;;;;20.75;90.26;101497.50;4980857;28;20069;-64
2023/08/13 10:14:35;;;;;;;11.30;3.15;;;;;;;20.82;91.91;101495.06;4994274;28;20053;-64
2023/08/13 10:17:06;;;;;;;12.20;3.25;;;;;;;20.87;89.22;101491.34;5014697;28;20100;-64
2023/08/13 10:19:40;;;;;;;11.48;3.50;;;;;;;20.92;91.74;101498.69;5015132;28;20050;-63
2023/08/13 10:22:12;;;;;;;12.25;2.85;;;;;;;21.03;93.94;101500.03;4999581;28;20046;-64
2023/08/13 10:24:43;;;;;;;10.77;3.40;;;;;;;21.05;89.76;101497.75;5010515;28;20095;-63
2023/08/13 10:27:14;;;;;;;12.32;3.28;;;;;;;21.06;91.46;101499.38;5015699;28;20054;-65
2023/08/13 10:29:42;;;;;;;12.27;3.70;;;;;;;21.04;86.04;101502.47;4998560;28;20152;-64
2023/08/13 10:32:13;;;;;;;8.88;3.17;;;;;;;21.08;87.96;101501.84;5013176;28;20547;-64
2023/08/13 10:34:43;;;;;;;7.03;2.55;;;;;;;21.12;91.16;101497.25;5001138;28;20054;-65
2023/08/13 10:37:17;;;;;;;11.10;3.65;;;;;;;21.15;91.02;101496.63;5015191;28;20053;-65
2023/08/13 10:39:46;;;;;;;13.45;2.92;;;;;;;21.20;92.49;101493.72;4984563;28;20054;-64
2023/08/13 10:42:36;;;;;;;12.95;3.20;;;;;;;21.19;88.81;101497.59;5015706;28;20062;-63
2023/08/13 10:45:05;;;;;;;9.32;2.97;;;;;;;21.18;89.12;101491.25;5024550;28;20069;-64
2023/08/13 10:47:46;;;;;;;11.80;3.30;;;;;;;21.20;90.35;101483.44;5012645;28;20042;-64
2023/08/13 10:50:23;;;;;;;11.85;3.20;;;;;;;21.17;86.60;101489.63;5016951;28;20046;-62
2023/08/13 10:52:52;;;;;;;13.07;3.42;;;;;;;21.21;90.12;101485.09;5032811;28;20092;-59
2023/08/13 10:55:24;;;;;;;11.35;3.40;;;;;;;21.26;89.82;101498.78;5034834;28;20053;-62
2023/08/13 10:57:52;;;;;;;11.55;3.17;;;;;;;21.28;86.86;101487.34;5030964;28;20066;-62
2023/08/13 11:00:25;;;;;;;7.75;3.03;;;;;;;21.37;89.17;101479.06;4998792;28;20045;-64
2023/08/13 11:03:18;;;;;;;16.10;3.90;;;;;;;21.40;84.96;101484.78;4999386;28;20057;-64
2023/08/13 11:05:47;;;;;;;11.15;3.15;;;;;;;21.49;84.50;101482.03;4990365;28;20132;-64
2023/08/13 11:08:23;;;;;;;12.63;3.97;;;;;;;21.53;83.55;101474.69;5006049;28;20045;-64
2023/08/13 11:11:11;;;;;;;9.48;3.22;;;;;;;21.58;83.95;101476.47;5013564;28;20044;-65
2023/08/13 11:13:40;;;;;;;9.95;3.05;;;;;;;21.64;85.15;101477.94;4998873;28;20049;-65
2023/08/13 11:16:08;;;;;;;9.02;3.17;;;;;;;21.72;88.69;101479.06;5015648;28;20121;-63
2023/08/13 11:18:36;;;;;;;11.63;3.22;;;;;;;21.76;86.14;101474.50;4966114;28;20507;-64
2023/08/13 11:21:05;;;;;;;11.95;3.28;;;;;;;21.82;85.27;101470.41;4998574;28;20050;-65
2023/08/13 11:23:33;;;;;;;12.27;3.30;;;;;;;21.86;81.63;101472.22;4998092;28;20042;-64
2023/08/13 11:26:05;;;;;;;49.65;6.07;;;;;;;21.90;82.50;101477.91;5015844;28;20050;-65